Aérodrome :
LOGIN :

S'inscrire | Disclaimer

   EN    FR    IT 

 










Légende :    VFR   VFR Marginal   IFR   IFR Intensif   IFR Très Intensif
Visi : 
Plafond : 
>= 8 km
>= 3000ft
5 à 8 km
1000 à 3000 ft
1500m à 5 km
500 à 1000 ft
800 à 1500m
200 à 500 ft
< 800m
< 200 ft
Symboles :   Orages  Brouillard  Fortes neiges  Fortes précipitations  Vent > 20 kt
SIGMETs :   Divers  Orages  Givrage  Turbulence  Onde Orograph.  Cendres Volcan.






- Altitude de l'aérodrome : 42 ft
- Code IATA : KGD


UMKK - Khrabrava - Kaliningrad

DERNIER METAR :
  • 280700Z 15006MPS 1000 0700S R24/1400D PRFG BR OVC002 02/01 Q1000 R24/190095 NOSIG RMK QBB070 OBST OBSC QFE749/0999

METARs EXPIRÉS :
  • 280630Z 14006MPS 1100 0750E R24/0900D PRFG BR OVC001 02/01 Q1001 R24/190095 NOSIG RMK QBB050 OBST OBSC QFE749/0999
  • 280600Z 15006MPS 0800 R24/1000N PRFG OVC001 02/02 Q1001 R24/190095 NOSIG RMK QBB050 OBST OBSC QFE749/0999
  • 280530Z 15004MPS 1200 1000E R24/P2000N BR OVC001 02/02 Q1001 R24/190095 NOSIG RMK QBB050 OBST OBSC QFE750/1000
  • 280500Z 16005MPS 1100 1000SW R24/P2000N BR OVC001 02/02 Q1002 R24/190095 NOSIG RMK QBB050 OBST OBSC QFE750/1000

TAF TAF UMKK
Valide du 28 à 06h jusqu'au 29 à 06h UTC


280459Z 2806/2906 16005G10MPS 1200 BR BKN002
TEMPO 2806/2809 0700 -DZ FG OVC003
FM280900 15006G11MPS 3100 -RA BR BKN010
TEMPO 2809/2824 2000 SHRA BR BKN005 SCT015CB
FM290000 18005G10MPS 9999 SCT011 BKN020



MET'MAP, la Météo Aéronautique d'un coup d'oeil ! - Copyright ORBIFLY Décembre 2007 - Disclaimer

ORBIFLY MET'MAP TEAM :

Programmation & Développement : Alexandra Zaïnal
Sur une idée originale de : Baudouin d'Aumeries
Assistance à la programmation : Marc-Olivier Méhu
Soutien technique & logistique : Manuel Goepfert

Contact : metmap@orbifly.com




SOURCES & CREDITS :

   NOAA